Airfield :







YOU CAN JOIN US ON...

 
LOGIN :

Register | Disclaimer

   EN    FR    IT 

 









Legend :    VFR   Marginal VFR   IFR   Intensive IFR   Very Intensive IFR
Visi :
Ceiling :
>= 8 km
>= 3000ft
5 to 8 km
1000 to 3000 ft
1500m to 5 km
500 to 1000 ft
800 to 1500m
200 to 500 ft
< 800m
< 200 ft
Symbols :   Thunderstorms  Fog  Heavy snow  Heavy precipitations  Wind > 20 kt






- Airport Elevation : 160 ft
- IATA code : YYG


CYYG - Charlottetown

CURRENT METAR :
  • 270325Z 25005KT 1/2SM R03/2600V6000FT/U -RA FG OVC003 03/03 A2941 RMK SF8 SLP964

EXPIRED METARs :
  • 270300Z 23006KT 1/4SM R03/1600FT/N -RA FG OVC002 03/03 A2942 RMK SF8 SLP965
  • 270241Z 21004KT 1/8SM R03/1200FT/N -RA FG OVC002 04/04 A2942 RMK SF8 SLP965
  • 270207Z 19009KT 1/4SM R03/1800V2800FT/N -RA FG OVC002 04/04 A2943 RMK SF8 SLP970
  • 270200Z 17009KT 1/2SM R03/3000VP6000FT/D -RA FG OVC002 04/04 A2943 RMK SF8 SLP970
  • 270134Z 17011G16KT 3SM -RA OVC003 04/04 A2944 RMK SF8 SLP973
  • 270102Z CCA 15011G18KT 12SM -RA BKN004 OVC013 05/04 A2946 RMK SF7SC1 SLP978
  • 270000Z 15017G23KT 15SM SCT007 OVC013 05/04 A2947 RMK SF3SC5 SLP984

TAF AMD TAF CYYG
Valid from the 27 at 02:00 until the 27 at 12:00 UTC


270218Z 2702/2712 19012KT 1/4SM -RA -DZ FG OVC002
TEMPO 2702/2704 2SM BR OVC006
FM270400 20012KT 1SM -DZ BR OVC003
TEMPO 2704/2706 6SM BR SCT003 OVC010
FM270600 22012G22KT P6SM BKN010
TEMPO 2706/2712 5SM -DZ BR BKN007 RMK NXT FCST BY 270600Z



MET'MAP, your aeronautical weather chart ! - Copyright ORBIFLY December 2007 - Disclaimer

ORBIFLY MET'MAP TEAM :

Programming & Development : Alexandra Zaïnal
Concept & original design : Baudouin d'Aumeries
Assistance for programming : Marc-Olivier Méhu
Technical & hardware support : Manuel Goepfert

Contact : metmap@orbifly.com




SOURCES & CREDITS :

   NOAA